Time;durP1;ratioP1;P1;durP2;ratioP2;P2;SDS_P1;SDS_P2;PMS_P1;PMS_P2;Temp;Humidity;BMP_temperature;BMP_pressure;BME280_temperature;BME280_humidity;BME280_pressure;Samples;Min_cycle;Max_cycle;Signal;HPM_P1;HPM_P2
2022/06/25 00:00:28;;;;;;;;;;;;;;;14.89;51.49;95112.16;5038767;28;20053;-70
2022/06/25 00:02:53;;;;;;;;;;;;;;;15.15;50.80;95117.53;5046438;28;19987;-70
2022/06/25 00:05:27;;;;;;;;;;;;;;;14.61;52.57;95112.56;5048485;28;19971;-71
2022/06/25 00:07:53;;;;;;;;;;;;;;;15.14;50.82;95114.03;5044340;28;19962;-71
2022/06/25 00:10:18;;;;;;;;;;;;;;;15.41;49.78;95116.47;5043915;28;20468;-70
2022/06/25 00:12:43;;;;;;;;;;;;;;;15.63;49.16;95124.13;5044819;28;20358;-71
2022/06/25 00:15:09;;;;;;;;;;;;;;;15.45;49.17;95122.22;5045288;28;19995;-71
2022/06/25 00:17:34;;;;;;;;;;;;;;;15.41;49.58;95129.06;5044896;28;20667;-71
2022/06/25 00:19:59;;;;;;;;;;;;;;;15.48;49.25;95127.16;5045283;28;19963;-71
2022/06/25 00:22:24;;;;;;;;;;;;;;;15.27;49.63;95125.69;5044533;28;20013;-71
2022/06/25 00:24:50;;;;;;;;;;;;;;;15.29;49.67;95134.31;5045349;28;19968;-71
2022/06/25 00:27:15;;;;;;;;;;;;;;;15.36;49.57;95140.44;5044646;28;20542;-70
2022/06/25 00:29:40;;;;;;;;;;;;;;;15.35;49.45;95147.69;5044308;28;20551;-70
2022/06/25 00:32:09;;;;;;;;;;;;;;;15.05;50.23;95137.63;5044495;28;19967;-70
2022/06/25 00:34:34;;;;;;;;;;;;;;;14.77;51.22;95138.84;5044559;28;20531;-70
2022/06/25 00:37:00;;;;;;;;;;;;;;;14.22;52.38;95145.50;5043640;28;19996;-70
2022/06/25 00:39:25;;;;;;;;;;;;;;;14.20;52.56;95143.06;5044578;28;20250;-69
2022/06/25 00:41:50;;;;;;;;;;;;;;;14.61;51.60;95150.88;5044259;28;19987;-71
2022/06/25 00:44:16;;;;;;;;;;;;;;;14.37;52.24;95147.06;5045138;28;20423;-70
2022/06/25 00:46:43;;;;;;;;;;;;;;;14.73;50.90;95148.34;5044588;28;19996;-70
2022/06/25 00:49:09;;;;;;;;;;;;;;;14.91;50.45;95142.25;5042730;28;19967;-71
2022/06/25 00:51:34;;;;;;;;;;;;;;;15.01;50.05;95154.34;5044525;28;19990;-70
2022/06/25 00:54:03;;;;;;;;;;;;;;;14.99;49.97;95151.88;5043051;28;20102;-71
2022/06/25 00:56:28;;;;;;;;;;;;;;;14.94;50.08;95149.88;5044177;28;19969;-71
2022/06/25 00:58:53;;;;;;;;;;;;;;;14.55;51.33;95151.75;5042963;28;20380;-70
2022/06/25 01:01:18;;;;;;;;;;;;;;;14.83;50.38;95161.28;5039936;28;20072;-71
2022/06/25 01:03:44;;;;;;;;;;;;;;;14.93;49.98;95158.13;5043932;28;19968;-71
2022/06/25 01:06:09;;;;;;;;;;;;;;;15.06;49.32;95158.00;5042853;28;20000;-71
2022/06/25 01:08:34;;;;;;;;;;;;;;;15.31;49.00;95156.38;5044353;28;19980;-70
2022/06/25 01:11:00;;;;;;;;;;;;;;;15.40;48.43;95160.41;5072645;28;20076;-67
2022/06/25 01:13:25;;;;;;;;;;;;;;;15.26;49.33;95164.28;5043541;28;20126;-68
2022/06/25 01:15:50;;;;;;;;;;;;;;;15.49;48.78;95169.84;5044427;28;20027;-70
2022/06/25 01:18:16;;;;;;;;;;;;;;;15.13;50.12;95165.19;5042334;28;20059;-67
2022/06/25 01:20:42;;;;;;;;;;;;;;;15.60;49.08;95168.31;5044320;28;19971;-68
2022/06/25 01:23:08;;;;;;;;;;;;;;;15.30;50.14;95171.66;5042440;28;20288;-69
2022/06/25 01:25:34;;;;;;;;;;;;;;;15.57;49.38;95178.69;5043313;28;19995;-70
2022/06/25 01:28:00;;;;;;;;;;;;;;;15.25;50.44;95176.84;5044228;28;19973;-70
2022/06/25 01:30:25;;;;;;;;;;;;;;;15.01;51.61;95175.78;5043336;28;20479;-70
2022/06/25 01:32:51;;;;;;;;;;;;;;;15.05;51.19;95172.47;5042616;28;19984;-70
2022/06/25 01:35:16;;;;;;;;;;;;;;;14.81;52.33;95184.78;5041801;28;20444;-70
2022/06/25 01:37:42;;;;;;;;;;;;;;;13.77;55.52;95189.06;5043279;28;20045;-69
2022/06/25 01:40:07;;;;;;;;;;;;;;;14.95;52.49;95180.16;5043587;28;20043;-67
2022/06/25 01:45:16;;;;;;;;;;;;;;;15.05;52.05;95180.50;5043102;28;20031;-69
2022/06/25 01:47:42;;;;;;;;;;;;;;;15.15;51.76;95171.97;5043838;28;20365;-69
2022/06/25 01:50:07;;;;;;;;;;;;;;;14.76;52.72;95179.25;5043410;28;20036;-69
2022/06/25 01:52:33;;;;;;;;;;;;;;;14.38;54.08;95179.00;5043859;28;20150;-70
2022/06/25 01:54:58;;;;;;;;;;;;;;;14.76;53.28;95176.56;5043526;28;19987;-69
2022/06/25 01:57:23;;;;;;;;;;;;;;;14.98;52.63;95172.50;5043311;28;20282;-69
2022/06/25 01:59:48;;;;;;;;;;;;;;;14.70;53.16;95171.03;5043546;28;19972;-69
2022/06/25 02:02:14;;;;;;;;;;;;;;;15.01;52.41;95181.16;5042931;28;19987;-69
2022/06/25 02:04:39;;;;;;;;;;;;;;;14.96;52.48;95187.19;5053449;28;19985;-70
2022/06/25 02:07:04;;;;;;;;;;;;;;;14.77;53.02;95176.38;5042882;28;20455;-70
2022/06/25 02:09:29;;;;;;;;;;;;;;;15.29;51.86;95186.09;5043149;28;19968;-70
2022/06/25 02:11:55;;;;;;;;;;;;;;;15.02;52.86;95182.81;5043913;28;19972;-70
2022/06/25 02:14:20;;;;;;;;;;;;;;;15.66;51.01;95187.25;5042902;28;19979;-70
2022/06/25 02:16:45;;;;;;;;;;;;;;;15.52;51.01;95184.66;5043301;28;19973;-70
2022/06/25 02:19:10;;;;;;;;;;;;;;;15.75;50.54;95186.75;5042594;28;19989;-69
2022/06/25 02:21:36;;;;;;;;;;;;;;;15.80;50.09;95190.63;5042783;28;20446;-70
2022/06/25 02:24:01;;;;;;;;;;;;;;;16.03;49.75;95194.53;5042940;28;20340;-70
2022/06/25 02:26:26;;;;;;;;;;;;;;;15.99;49.67;95195.00;5042802;28;20081;-70
2022/06/25 02:28:51;;;;;;;;;;;;;;;16.04;49.69;95190.81;5042865;28;19964;-70
2022/06/25 02:31:17;;;;;;;;;;;;;;;16.01;49.35;95189.38;5042419;28;19995;-70
2022/06/25 02:33:42;;;;;;;;;;;;;;;15.93;49.79;95200.41;5042973;28;19995;-70
2022/06/25 02:36:07;;;;;;;;;;;;;;;15.70;50.01;95200.00;5042700;28;19995;-69
2022/06/25 02:38:32;;;;;;;;;;;;;;;15.22;51.71;95204.94;5043063;28;20001;-70
2022/06/25 02:40:57;;;;;;;;;;;;;;;15.48;50.65;95205.75;5042796;28;20014;-70
2022/06/25 02:43:23;;;;;;;;;;;;;;;15.19;51.39;95207.19;5042501;28;20058;-69
2022/06/25 02:45:48;;;;;;;;;;;;;;;15.20;51.49;95203.50;5040987;28;20014;-70
2022/06/25 02:48:13;;;;;;;;;;;;;;;15.30;51.19;95209.19;5042974;28;19976;-69
2022/06/25 02:50:38;;;;;;;;;;;;;;;15.18;51.47;95206.41;5042442;28;20473;-69
2022/06/25 02:53:04;;;;;;;;;;;;;;;15.36;50.92;95211.00;5043863;28;20261;-70
2022/06/25 03:00:57;;;;;;;;;;;;;;;15.22;51.29;95201.41;5043660;28;20043;-70
2022/06/25 03:03:22;;;;;;;;;;;;;;;14.57;53.19;95212.09;5051457;28;20446;-69
2022/06/25 03:05:47;;;;;;;;;;;;;;;14.69;52.49;95212.22;5050968;28;19996;-69
2022/06/25 03:08:12;;;;;;;;;;;;;;;15.04;51.82;95205.69;5047372;28;19977;-70
2022/06/25 03:10:38;;;;;;;;;;;;;;;15.27;51.11;95206.97;5046283;28;20033;-70
2022/06/25 03:13:03;;;;;;;;;;;;;;;15.28;51.06;95215.81;5046940;28;20030;-70
2022/06/25 03:15:28;;;;;;;;;;;;;;;14.88;51.81;95220.41;5046235;28;19992;-70
2022/06/25 03:17:54;;;;;;;;;;;;;;;14.90;51.87;95218.34;5046174;28;19996;-70
2022/06/25 03:20:19;;;;;;;;;;;;;;;15.08;51.35;95222.97;5043549;28;19969;-69
2022/06/25 03:22:45;;;;;;;;;;;;;;;15.04;51.23;95221.75;5045994;28;20469;-69
2022/06/25 03:25:10;;;;;;;;;;;;;;;14.97;51.59;95221.81;5046199;28;20432;-70
2022/06/25 03:27:36;;;;;;;;;;;;;;;15.05;51.35;95226.06;5045498;28;20424;-70
2022/06/25 03:30:01;;;;;;;;;;;;;;;15.21;50.87;95219.38;5044797;28;20071;-71
2022/06/25 03:32:26;;;;;;;;;;;;;;;15.35;50.38;95224.63;5045908;28;19992;-71
2022/06/25 03:34:51;;;;;;;;;;;;;;;15.30;49.90;95216.44;5045555;28;19997;-71
2022/06/25 03:37:17;;;;;;;;;;;;;;;15.26;50.09;95218.69;5045820;28;20004;-71
2022/06/25 03:39:42;;;;;;;;;;;;;;;15.30;49.78;95227.97;5046960;28;20062;-70
2022/06/25 03:42:07;;;;;;;;;;;;;;;15.22;50.14;95226.38;5045608;28;20360;-71
2022/06/25 03:44:33;;;;;;;;;;;;;;;15.27;50.05;95227.59;5052600;28;20292;-71
2022/06/25 03:46:58;;;;;;;;;;;;;;;15.53;49.48;95241.84;5044699;28;20026;-71
2022/06/25 03:49:23;;;;;;;;;;;;;;;14.90;51.03;95236.28;5044586;28;19975;-71
2022/06/25 03:51:49;;;;;;;;;;;;;;;15.23;50.64;95235.25;5046227;28;20483;-71
2022/06/25 03:54:15;;;;;;;;;;;;;;;13.99;54.01;95239.66;5058768;28;19993;-71
2022/06/25 03:56:40;;;;;;;;;;;;;;;14.91;51.95;95241.41;5046019;28;19976;-72
2022/06/25 03:59:05;;;;;;;;;;;;;;;15.21;51.03;95237.31;5045759;28;20065;-71
2022/06/25 04:01:30;;;;;;;;;;;;;;;14.81;51.78;95244.56;5059853;28;20043;-71
2022/06/25 04:03:56;;;;;;;;;;;;;;;15.05;51.52;95234.13;5057871;28;19968;-71
2022/06/25 04:06:21;;;;;;;;;;;;;;;13.87;54.47;95234.13;5060227;28;20067;-71
2022/06/25 04:08:46;;;;;;;;;;;;;;;13.98;54.11;95238.03;5045863;28;20370;-71
2022/06/25 04:11:11;;;;;;;;;;;;;;;14.57;53.33;95230.84;5045575;28;19989;-72
2022/06/25 04:13:37;;;;;;;;;;;;;;;15.34;51.01;95236.41;5045324;28;20096;-73
2022/06/25 04:16:02;;;;;;;;;;;;;;;15.68;50.18;95233.47;5044314;28;19990;-71
2022/06/25 04:18:27;;;;;;;;;;;;;;;15.48;50.49;95229.06;5060448;28;20023;-71
2022/06/25 04:20:52;;;;;;;;;;;;;;;15.77;50.08;95232.13;5046012;28;19986;-71
2022/06/25 04:23:18;;;;;;;;;;;;;;;15.98;49.13;95235.47;5045282;28;19979;-71
2022/06/25 04:25:43;;;;;;;;;;;;;;;16.24;48.93;95237.06;5044856;28;19995;-71
2022/06/25 04:30:52;;;;;;;;;;;;;;;16.25;48.41;95241.38;5044903;28;20411;-71
2022/06/25 04:33:17;;;;;;;;;;;;;;;16.36;48.07;95244.41;5044051;28;20066;-72
2022/06/25 04:35:43;;;;;;;;;;;;;;;16.70;47.20;95249.38;5039702;28;20517;-71
2022/06/25 04:38:08;;;;;;;;;;;;;;;16.33;48.05;95239.44;5038589;28;19996;-72
2022/06/25 04:40:34;;;;;;;;;;;;;;;16.66;47.46;95243.63;5044996;28;19963;-71
2022/06/25 04:42:59;;;;;;;;;;;;;;;15.98;48.82;95246.22;5045007;28;19990;-71
2022/06/25 04:45:24;;;;;;;;;;;;;;;15.16;51.12;95246.00;5042178;28;20031;-70
2022/06/25 04:47:49;;;;;;;;;;;;;;;15.42;50.94;95246.03;5045578;28;20458;-72
2022/06/25 04:50:14;;;;;;;;;;;;;;;16.29;49.00;95255.19;5044539;28;19991;-71
2022/06/25 04:52:40;;;;;;;;;;;;;;;16.45;48.11;95253.78;5043395;28;20008;-71
2022/06/25 04:55:05;;;;;;;;;;;;;;;16.66;47.38;95259.75;5042252;28;19990;-72
2022/06/25 04:57:30;;;;;;;;;;;;;;;16.79;47.34;95257.94;5043026;28;19980;-72
2022/06/25 04:59:56;;;;;;;;;;;;;;;14.83;52.51;95265.78;5042894;28;19982;-72
2022/06/25 05:02:21;;;;;;;;;;;;;;;16.10;49.00;95267.75;5044232;28;20026;-72
2022/06/25 05:04:46;;;;;;;;;;;;;;;16.21;49.16;95272.41;5045170;28;20363;-71
2022/06/25 05:07:11;;;;;;;;;;;;;;;16.54;48.40;95270.44;5043026;28;19986;-72
2022/06/25 05:09:37;;;;;;;;;;;;;;;16.59;48.03;95275.13;5043555;28;19988;-71
2022/06/25 05:12:02;;;;;;;;;;;;;;;16.00;49.10;95284.38;5043061;28;19972;-72
2022/06/25 05:14:27;;;;;;;;;;;;;;;16.42;48.77;95285.66;5043991;28;19995;-72
2022/06/25 05:16:54;;;;;;;;;;;;;;;16.69;47.93;95282.66;5042242;28;20252;-73
2022/06/25 05:19:19;;;;;;;;;;;;;;;16.82;47.11;95284.38;5041372;28;20208;-72
2022/06/25 05:21:44;;;;;;;;;;;;;;;17.01;46.62;95294.06;5042472;28;20017;-73
2022/06/25 05:24:10;;;;;;;;;;;;;;;17.40;46.49;95290.22;5044556;28;20028;-71
2022/06/25 05:26:35;;;;;;;;;;;;;;;17.34;46.23;95291.97;5042891;28;20005;-71
2022/06/25 05:29:00;;;;;;;;;;;;;;;17.08;46.63;95298.50;5026169;28;19974;-71
2022/06/25 05:31:25;;;;;;;;;;;;;;;17.28;46.67;95298.28;5042247;28;20101;-72
2022/06/25 05:33:51;;;;;;;;;;;;;;;16.01;48.81;95302.13;5042443;28;20008;-71
2022/06/25 05:36:16;;;;;;;;;;;;;;;16.81;48.34;95299.69;5043298;28;20482;-71
2022/06/25 05:38:41;;;;;;;;;;;;;;;17.56;46.15;95304.06;5042764;28;19999;-71
2022/06/25 05:41:09;;;;;;;;;;;;;;;17.98;45.99;95309.44;5043751;28;20251;-72
2022/06/25 05:43:35;;;;;;;;;;;;;;;18.02;44.92;95302.53;5043379;28;20035;-71
2022/06/25 05:46:01;;;;;;;;;;;;;;;18.50;44.12;95299.81;5041790;28;19978;-72
2022/06/25 05:48:26;;;;;;;;;;;;;;;18.76;42.94;95308.47;5031271;28;20427;-71
2022/06/25 05:50:52;;;;;;;;;;;;;;;17.79;44.68;95306.78;5035230;28;20480;-71
2022/06/25 05:53:17;;;;;;;;;;;;;;;18.87;42.84;95300.59;5033961;28;19959;-81
2022/06/25 05:55:42;;;;;;;;;;;;;;;19.04;42.25;95308.75;5030264;28;20437;-81
2022/06/25 05:58:07;;;;;;;;;;;;;;;19.06;42.25;95309.31;5056180;28;20565;-80
2022/06/25 06:00:32;;;;;;;;;;;;;;;19.41;41.46;95315.66;5039275;28;19957;-80
2022/06/25 06:02:58;;;;;;;;;;;;;;;19.26;41.25;95310.75;5040460;28;19982;-80
2022/06/25 06:05:23;;;;;;;;;;;;;;;19.12;41.61;95313.75;5041124;28;19962;-81
2022/06/25 06:07:48;;;;;;;;;;;;;;;19.15;41.91;95324.06;5039669;28;20052;-81
2022/06/25 06:10:14;;;;;;;;;;;;;;;19.23;41.71;95322.84;5040691;28;20031;-77
2022/06/25 06:12:39;;;;;;;;;;;;;;;18.82;41.76;95318.31;5039764;28;19949;-81
2022/06/25 06:15:04;;;;;;;;;;;;;;;18.39;42.54;95327.59;5040645;28;20069;-81
2022/06/25 06:17:29;;;;;;;;;;;;;;;18.94;41.78;95326.34;5039497;28;20100;-79
2022/06/25 06:19:55;;;;;;;;;;;;;;;19.46;41.60;95321.16;5041416;28;19952;-81
2022/06/25 06:22:21;;;;;;;;;;;;;;;19.89;40.70;95327.03;5040344;28;20343;-80
2022/06/25 06:24:46;;;;;;;;;;;;;;;20.40;39.21;95325.38;5024504;28;19970;-82
2022/06/25 06:27:11;;;;;;;;;;;;;;;20.46;39.58;95324.34;5039455;28;20025;-80
2022/06/25 06:29:36;;;;;;;;;;;;;;;20.88;38.52;95325.75;5038742;28;20442;-82
2022/06/25 06:32:02;;;;;;;;;;;;;;;20.31;38.72;95333.91;5039618;28;20282;-78
2022/06/25 06:34:27;;;;;;;;;;;;;;;20.84;38.27;95336.25;5040479;28;20047;-80
2022/06/25 06:36:52;;;;;;;;;;;;;;;21.01;37.66;95335.41;5039770;28;19987;-81
2022/06/25 06:39:19;;;;;;;;;;;;;;;21.03;37.41;95338.66;5040106;28;20458;-80
2022/06/25 06:41:44;;;;;;;;;;;;;;;20.98;38.26;95333.97;5040219;28;19997;-80
2022/06/25 06:44:10;;;;;;;;;;;;;;;21.10;37.85;95341.97;5040730;28;20411;-78
2022/06/25 06:46:35;;;;;;;;;;;;;;;20.23;39.25;95347.84;5040477;28;19971;-79
2022/06/25 06:49:00;;;;;;;;;;;;;;;20.36;39.13;95346.66;5039058;28;20023;-79
2022/06/25 06:51:25;;;;;;;;;;;;;;;20.03;38.96;95359.97;5040089;28;19976;-80
2022/06/25 06:53:51;;;;;;;;;;;;;;;20.66;38.08;95345.50;5040135;28;19973;-79
2022/06/25 06:56:16;;;;;;;;;;;;;;;20.59;38.17;95352.94;5028301;28;20396;-80
2022/06/25 06:58:41;;;;;;;;;;;;;;;19.64;39.77;95351.72;5040673;28;20057;-78
2022/06/25 07:01:06;;;;;;;;;;;;;;;20.06;39.63;95356.75;5041621;28;19977;-79
2022/06/25 07:03:32;;;;;;;;;;;;;;;19.58;40.46;95356.19;5041909;28;20086;-78
2022/06/25 07:05:57;;;;;;;;;;;;;;;19.54;40.69;95358.53;5040118;28;19966;-80
2022/06/25 07:08:22;;;;;;;;;;;;;;;19.15;41.00;95359.16;5041824;28;20442;-79
2022/06/25 07:10:47;;;;;;;;;;;;;;;20.15;39.02;95357.16;5039806;28;20049;-78
2022/06/25 07:13:13;;;;;;;;;;;;;;;20.62;38.60;95352.44;5040621;28;19954;-72
2022/06/25 07:15:39;;;;;;;;;;;;;;;20.48;38.00;95351.97;5041138;28;20385;-79
2022/06/25 07:18:04;;;;;;;;;;;;;;;20.55;38.15;95354.50;5041627;28;19985;-80
2022/06/25 07:20:30;;;;;;;;;;;;;;;20.42;38.04;95351.06;5041434;28;20032;-79
2022/06/25 07:22:55;;;;;;;;;;;;;;;20.92;37.67;95353.13;5041292;28;20249;-80
2022/06/25 07:25:20;;;;;;;;;;;;;;;21.50;36.61;95348.13;5041252;28;19958;-79
2022/06/25 07:27:46;;;;;;;;;;;;;;;21.59;36.58;95353.88;5041919;28;20419;-80
2022/06/25 07:30:12;;;;;;;;;;;;;;;21.23;37.34;95348.91;5041723;28;20475;-79
2022/06/25 07:32:37;;;;;;;;;;;;;;;21.73;35.58;95346.19;5045264;28;19952;-78
2022/06/25 07:35:02;;;;;;;;;;;;;;;21.96;35.32;95348.84;5059960;28;20426;-80
2022/06/25 07:37:28;;;;;;;;;;;;;;;22.18;34.76;95350.63;5041059;28;20048;-79
2022/06/25 07:39:53;;;;;;;;;;;;;;;21.47;36.34;95350.53;5042427;28;20251;-80
2022/06/25 07:42:18;;;;;;;;;;;;;;;20.53;37.67;95352.03;5045173;28;20558;-80
2022/06/25 07:44:44;;;;;;;;;;;;;;;21.71;35.75;95347.50;5061460;28;20355;-78
2022/06/25 07:47:09;;;;;;;;;;;;;;;22.20;34.99;95349.28;5044394;28;19977;-78
2022/06/25 07:51:56;;;;;;;;;;;;;;;19.38;39.65;95356.63;5067541;28;20023;-78
2022/06/25 07:52:20;;;;;;;;;;;;;;;21.79;35.34;95357.88;5045715;28;19958;-78
2022/06/25 07:54:45;;;;;;;;;;;;;;;22.43;34.06;95357.34;5037629;28;20113;-78
2022/06/25 07:57:10;;;;;;;;;;;;;;;22.49;33.88;95345.44;5037333;28;19961;-78
2022/06/25 07:59:35;;;;;;;;;;;;;;;21.96;34.20;95354.28;5045134;28;19966;-78
2022/06/25 08:02:00;;;;;;;;;;;;;;;21.53;35.22;95343.28;5047051;28;19963;-78
2022/06/25 08:04:26;;;;;;;;;;;;;;;21.98;35.08;95346.69;5045170;28;19960;-78
2022/06/25 08:06:51;;;;;;;;;;;;;;;22.45;34.18;95334.28;5043638;28;19966;-78
2022/06/25 08:09:16;;;;;;;;;;;;;;;22.91;33.42;95350.03;5059925;28;19948;-78
2022/06/25 08:11:41;;;;;;;;;;;;;;;21.87;35.65;95345.75;5043466;28;19940;-77
2022/06/25 08:14:07;;;;;;;;;;;;;;;21.67;35.83;95346.38;5044180;28;20046;-78
2022/06/25 08:16:33;;;;;;;;;;;;;;;22.04;35.52;95358.38;5060298;28;19978;-78
2022/06/25 08:18:58;;;;;;;;;;;;;;;21.93;36.04;95355.63;5059687;28;20432;-77
2022/06/25 08:21:23;;;;;;;;;;;;;;;21.81;35.40;95357.63;5042671;28;19951;-78
2022/06/25 08:23:48;;;;;;;;;;;;;;;22.90;33.60;95350.28;5045828;28;20016;-78
2022/06/25 08:26:15;;;;;;;;;;;;;;;22.34;34.20;95357.00;5044121;28;19971;-78
2022/06/25 08:28:40;;;;;;;;;;;;;;;20.04;38.24;95371.56;5043313;28;19953;-77
2022/06/25 08:31:06;;;;;;;;;;;;;;;20.17;37.79;95359.63;5042376;28;19961;-78
2022/06/25 08:33:31;;;;;;;;;;;;;;;21.06;37.04;95361.69;5043728;28;20360;-78
2022/06/25 08:35:56;;;;;;;;;;;;;;;21.21;36.86;95358.34;5059558;28;19957;-78
2022/06/25 08:38:21;;;;;;;;;;;;;;;21.96;35.13;95367.81;5042321;28;20012;-77
2022/06/25 08:40:47;;;;;;;;;;;;;;;22.41;34.41;95354.88;5042896;28;19996;-77
2022/06/25 08:43:12;;;;;;;;;;;;;;;22.28;34.24;95356.97;5025593;28;20023;-78
2022/06/25 08:45:37;;;;;;;;;;;;;;;21.19;36.70;95363.19;5043745;28;19990;-78
2022/06/25 08:48:03;;;;;;;;;;;;;;;22.41;35.03;95350.25;5043895;28;19944;-77
2022/06/25 08:50:28;;;;;;;;;;;;;;;20.86;36.12;95365.75;5042180;28;20058;-77
2022/06/25 08:52:53;;;;;;;;;;;;;;;21.19;36.12;95368.59;5044127;28;19949;-77
2022/06/25 08:55:22;;;;;;;;;;;;;;;22.03;34.68;95360.31;5031866;28;20341;-77
2022/06/25 08:57:47;;;;;;;;;;;;;;;22.27;35.46;95347.19;5040795;28;20015;-78
2022/06/25 09:00:12;;;;;;;;;;;;;;;21.42;35.73;95350.47;5043673;28;19971;-77
2022/06/25 09:02:39;;;;;;;;;;;;;;;22.62;34.13;95344.19;5043374;28;20255;-77
2022/06/25 09:05:05;;;;;;;;;;;;;;;22.95;33.40;95344.91;5042593;28;20384;-78
2022/06/25 09:07:30;;;;;;;;;;;;;;;23.42;33.31;95345.88;5043387;28;19965;-78
2022/06/25 09:09:55;;;;;;;;;;;;;;;24.06;33.18;95342.19;5043246;28;20016;-79
2022/06/25 09:12:22;;;;;;;;;;;;;;;24.12;31.31;95349.25;5043493;28;20029;-79
2022/06/25 09:14:47;;;;;;;;;;;;;;;24.68;31.15;95344.84;5041665;28;20543;-79
2022/06/25 09:17:14;;;;;;;;;;;;;;;25.24;29.90;95347.69;5041868;28;19920;-79
2022/06/25 09:19:47;;;;;;;;;;;;;;;24.73;29.18;95360.34;5042905;28;20442;-77
2022/06/25 09:22:13;;;;;;;;;;;;;;;23.17;31.59;95355.59;5042579;28;20035;-77
2022/06/25 09:24:39;;;;;;;;;;;;;;;23.73;29.84;95357.91;5041784;28;20289;-77
2022/06/25 09:27:04;;;;;;;;;;;;;;;23.96;30.20;95353.88;5041423;28;20443;-78
2022/06/25 09:29:45;;;;;;;;;;;;;;;23.90;30.42;95355.78;5042969;28;19946;-78
2022/06/25 09:32:10;;;;;;;;;;;;;;;24.02;30.56;95360.94;5030073;28;20907;-78
2022/06/25 09:34:36;;;;;;;;;;;;;;;22.91;32.43;95352.75;5041566;28;20392;-78
2022/06/25 09:37:15;;;;;;;;;;;;;;;23.38;29.62;95362.97;5041675;28;20095;-79
2022/06/25 09:39:40;;;;;;;;;;;;;;;24.30;29.09;95352.53;5041231;28;20049;-78
2022/06/25 09:42:06;;;;;;;;;;;;;;;24.85;27.52;95346.47;5057658;28;20048;-78
2022/06/25 09:44:31;;;;;;;;;;;;;;;24.73;29.02;95345.94;5041505;28;19950;-78
2022/06/25 09:46:57;;;;;;;;;;;;;;;24.97;29.14;95346.16;5042426;28;20437;-78
2022/06/25 09:49:25;;;;;;;;;;;;;;;25.06;27.44;95344.50;5057595;28;20310;-79
2022/06/25 09:52:00;;;;;;;;;;;;;;;25.11;27.87;95337.41;5041491;28;20253;-78
2022/06/25 09:54:25;;;;;;;;;;;;;;;25.59;28.12;95343.16;5041015;28;20233;-78
2022/06/25 09:56:51;;;;;;;;;;;;;;;25.79;27.81;95340.56;5041752;28;20428;-79
2022/06/25 09:59:16;;;;;;;;;;;;;;;25.66;27.52;95345.56;5040837;28;19948;-78
2022/06/25 10:01:41;;;;;;;;;;;;;;;26.17;25.99;95340.84;5040580;28;19977;-78
2022/06/25 10:04:06;;;;;;;;;;;;;;;24.70;28.09;95356.28;5041102;28;19939;-78
2022/06/25 10:06:35;;;;;;;;;;;;;;;23.33;29.92;95357.53;5040884;28;20008;-77
2022/06/25 10:09:02;;;;;;;;;;;;;;;24.31;29.98;95343.28;5041090;28;20374;-77
2022/06/25 10:11:28;;;;;;;;;;;;;;;25.06;28.46;95330.06;5040535;28;20034;-78
2022/06/25 10:13:53;;;;;;;;;;;;;;;25.94;27.73;95329.53;5040644;28;19952;-79
2022/06/25 10:16:23;;;;;;;;;;;;;;;26.07;25.48;95324.59;5057897;28;20356;-80
2022/06/25 10:18:49;;;;;;;;;;;;;;;25.73;26.16;95328.91;5057154;28;19920;-78
2022/06/25 10:21:14;;;;;;;;;;;;;;;24.53;27.60;95328.56;5040592;28;19952;-78
2022/06/25 10:23:40;;;;;;;;;;;;;;;25.87;26.18;95331.81;5041644;28;19961;-78
2022/06/25 10:26:05;;;;;;;;;;;;;;;26.11;27.27;95322.91;5041988;28;19992;-78
2022/06/25 10:28:32;;;;;;;;;;;;;;;26.76;25.51;95323.66;5057063;28;20071;-78
2022/06/25 10:30:57;;;;;;;;;;;;;;;26.68;25.83;95333.28;5040160;28;19980;-78
2022/06/25 10:33:23;;;;;;;;;;;;;;;26.85;25.07;95321.91;5026940;28;19917;-78
2022/06/25 10:35:49;;;;;;;;;;;;;;;26.72;24.75;95317.94;5022951;28;19953;-78
2022/06/25 10:38:21;;;;;;;;;;;;;;;26.94;24.72;95315.78;5021628;28;19998;-78
2022/06/25 10:40:50;;;;;;;;;;;;;;;27.04;25.59;95312.94;5021307;28;19930;-78
2022/06/25 10:43:33;;;;;;;;;;;;;;;26.92;25.42;95315.28;5023283;28;20450;-78
2022/06/25 10:45:59;;;;;;;;;;;;;;;26.68;25.12;95311.44;5022428;28;19917;-78
2022/06/25 10:48:25;;;;;;;;;;;;;;;27.55;24.97;95313.38;5023754;28;20332;-79
2022/06/25 10:50:51;;;;;;;;;;;;;;;27.64;24.84;95319.81;5016460;28;19920;-79
2022/06/25 10:53:16;;;;;;;;;;;;;;;27.62;24.94;95310.28;5023698;28;20401;-79
2022/06/25 10:55:47;;;;;;;;;;;;;;;27.64;23.42;95313.56;5036942;28;19912;-79
2022/06/25 10:58:13;;;;;;;;;;;;;;;27.64;24.92;95303.41;5041913;28;20014;-79
2022/06/25 11:01:04;;;;;;;;;;;;;;;28.11;24.89;95299.94;5041937;28;20381;-79
2022/06/25 11:03:32;;;;;;;;;;;;;;;28.30;23.59;95312.00;5040190;28;19927;-78
2022/06/25 11:05:59;;;;;;;;;;;;;;;28.43;23.70;95308.44;5041392;28;20012;-79
2022/06/25 11:08:33;;;;;;;;;;;;;;;27.86;23.03;95303.91;5040848;28;20393;-79
2022/06/25 11:10:59;;;;;;;;;;;;;;;28.15;23.21;95305.66;5056355;28;20441;-79
2022/06/25 11:13:24;;;;;;;;;;;;;;;28.19;21.20;95298.47;5040296;28;19975;-79
2022/06/25 11:15:49;;;;;;;;;;;;;;;28.22;22.12;95295.16;5043988;28;19917;-79
2022/06/25 11:18:15;;;;;;;;;;;;;;;28.08;22.34;95297.81;5060946;28;19925;-78
2022/06/25 11:20:40;;;;;;;;;;;;;;;28.60;20.70;95304.31;5044340;28;19921;-78
2022/06/25 11:23:09;;;;;;;;;;;;;;;26.98;24.35;95305.91;5043993;28;19920;-78
2022/06/25 11:28:51;;;;;;;;;;;;;;;25.45;26.06;95307.53;5044271;28;19923;-79
2022/06/25 11:31:22;;;;;;;;;;;;;;;27.22;23.79;95307.84;5045808;28;20352;-79
2022/06/25 11:33:48;;;;;;;;;;;;;;;27.98;23.00;95306.19;5030208;28;19921;-79
2022/06/25 11:36:14;;;;;;;;;;;;;;;27.37;23.18;95301.34;5044078;28;19925;-80
2022/06/25 11:38:39;;;;;;;;;;;;;;;26.71;24.92;95310.88;5045036;28;20595;-78
2022/06/25 11:41:04;;;;;;;;;;;;;;;28.11;24.09;95305.41;5044125;28;20008;-78
2022/06/25 11:43:30;;;;;;;;;;;;;;;28.75;22.54;95311.47;5044980;28;20059;-79
2022/06/25 11:45:56;;;;;;;;;;;;;;;27.39;23.74;95301.84;5044508;28;19924;-78
2022/06/25 11:48:31;;;;;;;;;;;;;;;26.43;25.58;95307.88;5027530;28;19960;-78
2022/06/25 11:50:58;;;;;;;;;;;;;;;27.33;24.07;95303.03;5044645;28;20547;-78
2022/06/25 11:53:23;;;;;;;;;;;;;;;27.94;24.16;95300.50;5043384;28;19967;-78
2022/06/25 11:55:58;;;;;;;;;;;;;;;28.38;22.58;95298.41;5043229;28;19964;-78
2022/06/25 11:58:26;;;;;;;;;;;;;;;28.61;21.90;95301.28;5043029;28;20016;-78
2022/06/25 12:00:53;;;;;;;;;;;;;;;28.61;21.71;95294.97;5060011;28;19955;-79
2022/06/25 12:03:22;;;;;;;;;;;;;;;28.81;21.68;95290.25;5043211;28;20419;-78
2022/06/25 12:05:48;;;;;;;;;;;;;;;28.68;21.80;95287.19;5042948;28;20378;-78
2022/06/25 12:08:14;;;;;;;;;;;;;;;28.17;22.57;95292.50;5044766;28;19924;-78
2022/06/25 12:10:41;;;;;;;;;;;;;;;28.24;22.39;95297.59;5044282;28;19917;-79
2022/06/25 12:13:06;;;;;;;;;;;;;;;28.59;22.39;95302.69;5043841;28;20046;-81
2022/06/25 12:15:31;;;;;;;;;;;;;;;29.01;23.10;95299.97;5042866;28;20057;-80
2022/06/25 12:18:03;;;;;;;;;;;;;;;29.43;22.87;95299.91;5059403;28;19925;-79
2022/06/25 12:20:29;;;;;;;;;;;;;;;29.92;21.61;95299.38;5040343;28;20011;-79
2022/06/25 12:22:54;;;;;;;;;;;;;;;30.41;21.58;95285.78;5016689;28;20012;-79
2022/06/25 12:25:29;;;;;;;;;;;;;;;30.56;21.29;95292.78;5027683;28;19921;-79
2022/06/25 12:27:55;;;;;;;;;;;;;;;30.98;20.62;95302.66;5025738;28;19921;-79
2022/06/25 12:30:23;;;;;;;;;;;;;;;30.34;20.25;95299.16;5042552;28;20422;-80
2022/06/25 12:32:49;;;;;;;;;;;;;;;30.31;22.17;95303.34;5045003;28;19917;-80
2022/06/25 12:35:17;;;;;;;;;;;;;;;30.81;20.21;95286.94;5027273;28;19921;-80
2022/06/25 12:37:43;;;;;;;;;;;;;;;31.06;20.53;95285.38;5043582;28;19948;-79
2022/06/25 12:40:08;;;;;;;;;;;;;;;31.32;19.84;95297.56;5027081;28;20005;-79
2022/06/25 12:42:33;;;;;;;;;;;;;;;30.75;20.58;95289.03;5023308;28;19917;-80
2022/06/25 12:44:59;;;;;;;;;;;;;;;30.93;20.50;95300.88;5024555;28;19928;-80
2022/06/25 12:47:24;;;;;;;;;;;;;;;31.28;19.96;95289.19;5023357;28;19921;-80
2022/06/25 12:49:53;;;;;;;;;;;;;;;31.74;18.95;95288.88;5028285;28;19917;-80
2022/06/25 12:52:19;;;;;;;;;;;;;;;30.95;18.62;95297.81;5031785;28;19913;-80
2022/06/25 12:54:48;;;;;;;;;;;;;;;30.86;21.29;95288.72;5019145;28;19917;-80